sensor_id;sensor_type;location;lat;lon;timestamp;temperature;humidity
7708;DHT22;3896;48.758;8.888;2023-05-15T00:01:39;11.30;99.90
7708;DHT22;3896;48.758;8.888;2023-05-15T00:04:05;11.30;99.90
7708;DHT22;3896;48.758;8.888;2023-05-15T00:06:30;11.30;99.90
7708;DHT22;3896;48.758;8.888;2023-05-15T00:08:56;11.30;99.90
7708;DHT22;3896;48.758;8.888;2023-05-15T00:11:22;11.30;99.90
7708;DHT22;3896;48.758;8.888;2023-05-15T00:13:48;11.30;99.90
7708;DHT22;3896;48.758;8.888;2023-05-15T00:16:14;11.30;99.90
7708;DHT22;3896;48.758;8.888;2023-05-15T00:18:39;11.20;99.90
7708;DHT22;3896;48.758;8.888;2023-05-15T00:21:05;11.20;99.90
7708;DHT22;3896;48.758;8.888;2023-05-15T00:23:30;11.20;99.90
7708;DHT22;3896;48.758;8.888;2023-05-15T00:25:56;11.20;99.90
7708;DHT22;3896;48.758;8.888;2023-05-15T00:28:21;11.10;99.90
7708;DHT22;3896;48.758;8.888;2023-05-15T00:30:47;11.10;99.90
7708;DHT22;3896;48.758;8.888;2023-05-15T00:33:13;11.10;99.90
7708;DHT22;3896;48.758;8.888;2023-05-15T00:35:38;11.10;99.90
7708;DHT22;3896;48.758;8.888;2023-05-15T00:38:04;11.10;99.90
7708;DHT22;3896;48.758;8.888;2023-05-15T00:40:30;11.00;99.90
7708;DHT22;3896;48.758;8.888;2023-05-15T00:42:57;11.00;99.90
7708;DHT22;3896;48.758;8.888;2023-05-15T00:45:24;11.00;99.90
7708;DHT22;3896;48.758;8.888;2023-05-15T00:47:50;11.00;99.90
7708;DHT22;3896;48.758;8.888;2023-05-15T00:50:16;11.00;99.90
7708;DHT22;3896;48.758;8.888;2023-05-15T00:52:42;10.90;99.90
7708;DHT22;3896;48.758;8.888;2023-05-15T00:55:08;10.90;99.90
7708;DHT22;3896;48.758;8.888;2023-05-15T00:57:34;10.90;99.90
7708;DHT22;3896;48.758;8.888;2023-05-15T01:00:01;10.90;99.90
7708;DHT22;3896;48.758;8.888;2023-05-15T01:02:26;10.90;99.90
7708;DHT22;3896;48.758;8.888;2023-05-15T01:04:52;10.90;99.90
7708;DHT22;3896;48.758;8.888;2023-05-15T01:07:18;10.80;99.90
7708;DHT22;3896;48.758;8.888;2023-05-15T01:09:44;10.80;99.90
7708;DHT22;3896;48.758;8.888;2023-05-15T01:12:14;10.80;99.90
7708;DHT22;3896;48.758;8.888;2023-05-15T01:14:39;10.80;99.90
7708;DHT22;3896;48.758;8.888;2023-05-15T01:17:05;10.80;99.90
7708;DHT22;3896;48.758;8.888;2023-05-15T01:19:30;10.80;99.90
7708;DHT22;3896;48.758;8.888;2023-05-15T01:22:20;10.80;99.90
7708;DHT22;3896;48.758;8.888;2023-05-15T01:25:18;10.80;99.90
7708;DHT22;3896;48.758;8.888;2023-05-15T01:27:49;10.80;99.90
7708;DHT22;3896;48.758;8.888;2023-05-15T01:30:27;10.80;99.90
7708;DHT22;3896;48.758;8.888;2023-05-15T01:36:14;10.80;99.90
7708;DHT22;3896;48.758;8.888;2023-05-15T01:38:51;10.80;99.90
7708;DHT22;3896;48.758;8.888;2023-05-15T01:41:25;10.80;99.90
7708;DHT22;3896;48.758;8.888;2023-05-15T01:43:59;10.80;99.90
7708;DHT22;3896;48.758;8.888;2023-05-15T01:46:28;10.80;99.90
7708;DHT22;3896;48.758;8.888;2023-05-15T01:48:57;10.80;99.90
7708;DHT22;3896;48.758;8.888;2023-05-15T01:51:26;10.80;99.90
7708;DHT22;3896;48.758;8.888;2023-05-15T01:53:52;10.90;99.90
7708;DHT22;3896;48.758;8.888;2023-05-15T01:56:19;10.90;99.90
7708;DHT22;3896;48.758;8.888;2023-05-15T01:58:47;10.90;99.90
7708;DHT22;3896;48.758;8.888;2023-05-15T02:01:13;10.90;99.90
7708;DHT22;3896;48.758;8.888;2023-05-15T02:03:39;10.90;99.90
7708;DHT22;3896;48.758;8.888;2023-05-15T02:06:06;10.90;99.90
7708;DHT22;3896;48.758;8.888;2023-05-15T02:08:33;10.90;99.90
7708;DHT22;3896;48.758;8.888;2023-05-15T02:11:00;11.00;99.90
7708;DHT22;3896;48.758;8.888;2023-05-15T02:13:27;10.90;99.90
7708;DHT22;3896;48.758;8.888;2023-05-15T02:15:55;11.00;99.90
7708;DHT22;3896;48.758;8.888;2023-05-15T02:18:20;11.00;99.90
7708;DHT22;3896;48.758;8.888;2023-05-15T02:20:46;11.00;99.90
7708;DHT22;3896;48.758;8.888;2023-05-15T02:23:11;11.00;99.90
7708;DHT22;3896;48.758;8.888;2023-05-15T02:28:22;11.00;99.90
7708;DHT22;3896;48.758;8.888;2023-05-15T02:30:58;11.00;99.90
7708;DHT22;3896;48.758;8.888;2023-05-15T02:33:27;11.00;99.90
7708;DHT22;3896;48.758;8.888;2023-05-15T02:36:08;11.00;99.90
7708;DHT22;3896;48.758;8.888;2023-05-15T02:38:46;11.00;99.90
7708;DHT22;3896;48.758;8.888;2023-05-15T02:41:13;11.00;99.90
7708;DHT22;3896;48.758;8.888;2023-05-15T02:43:40;11.00;99.90
7708;DHT22;3896;48.758;8.888;2023-05-15T02:46:07;11.00;99.90
7708;DHT22;3896;48.758;8.888;2023-05-15T02:48:40;11.10;99.90
7708;DHT22;3896;48.758;8.888;2023-05-15T02:51:06;11.10;99.90
7708;DHT22;3896;48.758;8.888;2023-05-15T02:53:33;11.10;99.90
7708;DHT22;3896;48.758;8.888;2023-05-15T02:56:03;11.10;99.90
7708;DHT22;3896;48.758;8.888;2023-05-15T02:58:28;11.10;99.90
7708;DHT22;3896;48.758;8.888;2023-05-15T03:00:54;11.10;99.90
7708;DHT22;3896;48.758;8.888;2023-05-15T03:03:20;11.10;99.90
7708;DHT22;3896;48.758;8.888;2023-05-15T03:05:46;11.10;99.90
7708;DHT22;3896;48.758;8.888;2023-05-15T03:08:11;11.10;99.90
7708;DHT22;3896;48.758;8.888;2023-05-15T03:10:37;11.10;99.90
7708;DHT22;3896;48.758;8.888;2023-05-15T03:13:02;11.10;99.90
7708;DHT22;3896;48.758;8.888;2023-05-15T03:15:28;11.20;99.90
7708;DHT22;3896;48.758;8.888;2023-05-15T03:17:53;11.10;99.90
7708;DHT22;3896;48.758;8.888;2023-05-15T03:20:19;11.20;99.90
7708;DHT22;3896;48.758;8.888;2023-05-15T03:22:44;11.20;99.90
7708;DHT22;3896;48.758;8.888;2023-05-15T03:25:10;11.20;99.90
7708;DHT22;3896;48.758;8.888;2023-05-15T03:27:36;11.20;99.90
7708;DHT22;3896;48.758;8.888;2023-05-15T03:30:03;11.20;99.90
7708;DHT22;3896;48.758;8.888;2023-05-15T03:32:28;11.20;99.90
7708;DHT22;3896;48.758;8.888;2023-05-15T03:34:54;11.20;99.90
7708;DHT22;3896;48.758;8.888;2023-05-15T03:37:19;11.30;99.90
7708;DHT22;3896;48.758;8.888;2023-05-15T03:39:45;11.30;99.90
7708;DHT22;3896;48.758;8.888;2023-05-15T03:42:11;11.30;99.90
7708;DHT22;3896;48.758;8.888;2023-05-15T03:44:36;11.30;99.90
7708;DHT22;3896;48.758;8.888;2023-05-15T03:47:02;11.30;99.90
7708;DHT22;3896;48.758;8.888;2023-05-15T03:49:27;11.30;99.90
7708;DHT22;3896;48.758;8.888;2023-05-15T03:51:53;11.30;99.90
7708;DHT22;3896;48.758;8.888;2023-05-15T03:54:18;11.30;99.90
7708;DHT22;3896;48.758;8.888;2023-05-15T03:56:44;11.30;99.90
7708;DHT22;3896;48.758;8.888;2023-05-15T03:59:09;11.30;99.90
7708;DHT22;3896;48.758;8.888;2023-05-15T04:01:35;11.30;99.90
7708;DHT22;3896;48.758;8.888;2023-05-15T04:04:00;11.40;99.90
7708;DHT22;3896;48.758;8.888;2023-05-15T04:06:26;11.40;99.90
7708;DHT22;3896;48.758;8.888;2023-05-15T04:08:51;11.40;99.90
7708;DHT22;3896;48.758;8.888;2023-05-15T04:11:17;11.40;99.90
7708;DHT22;3896;48.758;8.888;2023-05-15T04:13:43;11.40;99.90
7708;DHT22;3896;48.758;8.888;2023-05-15T04:16:08;11.40;99.90
7708;DHT22;3896;48.758;8.888;2023-05-15T04:18:34;11.40;99.90
7708;DHT22;3896;48.758;8.888;2023-05-15T04:20:59;11.40;99.90
7708;DHT22;3896;48.758;8.888;2023-05-15T04:23:25;11.40;99.90
7708;DHT22;3896;48.758;8.888;2023-05-15T04:25:50;11.40;99.90
7708;DHT22;3896;48.758;8.888;2023-05-15T04:28:18;11.40;99.90
7708;DHT22;3896;48.758;8.888;2023-05-15T04:30:45;11.50;99.90
7708;DHT22;3896;48.758;8.888;2023-05-15T04:33:11;11.40;99.90
7708;DHT22;3896;48.758;8.888;2023-05-15T04:35:36;11.50;99.90
7708;DHT22;3896;48.758;8.888;2023-05-15T04:38:02;11.50;99.90
7708;DHT22;3896;48.758;8.888;2023-05-15T04:40:27;11.50;99.90
7708;DHT22;3896;48.758;8.888;2023-05-15T04:42:53;11.50;99.90
7708;DHT22;3896;48.758;8.888;2023-05-15T04:45:19;11.50;99.90
7708;DHT22;3896;48.758;8.888;2023-05-15T04:47:44;11.50;99.90
7708;DHT22;3896;48.758;8.888;2023-05-15T04:50:10;11.60;99.90
7708;DHT22;3896;48.758;8.888;2023-05-15T04:52:36;11.60;99.90
7708;DHT22;3896;48.758;8.888;2023-05-15T04:55:02;11.60;99.90
7708;DHT22;3896;48.758;8.888;2023-05-15T04:57:27;11.60;99.90
7708;DHT22;3896;48.758;8.888;2023-05-15T04:59:53;11.70;99.90
7708;DHT22;3896;48.758;8.888;2023-05-15T05:02:19;11.70;99.90
7708;DHT22;3896;48.758;8.888;2023-05-15T05:04:46;11.70;99.90
7708;DHT22;3896;48.758;8.888;2023-05-15T05:07:12;11.70;99.90
7708;DHT22;3896;48.758;8.888;2023-05-15T05:09:38;11.70;99.90
7708;DHT22;3896;48.758;8.888;2023-05-15T05:12:07;11.80;99.90
7708;DHT22;3896;48.758;8.888;2023-05-15T05:14:33;11.80;99.90
7708;DHT22;3896;48.758;8.888;2023-05-15T05:16:59;11.80;99.90
7708;DHT22;3896;48.758;8.888;2023-05-15T05:19:25;11.80;99.90
7708;DHT22;3896;48.758;8.888;2023-05-15T05:21:52;11.90;99.90
7708;DHT22;3896;48.758;8.888;2023-05-15T05:24:18;11.90;99.90
7708;DHT22;3896;48.758;8.888;2023-05-15T05:26:43;11.90;99.90
7708;DHT22;3896;48.758;8.888;2023-05-15T05:29:09;12.00;99.90
7708;DHT22;3896;48.758;8.888;2023-05-15T05:31:35;12.00;99.90
7708;DHT22;3896;48.758;8.888;2023-05-15T05:34:00;12.00;99.90
7708;DHT22;3896;48.758;8.888;2023-05-15T05:36:26;12.00;99.90
7708;DHT22;3896;48.758;8.888;2023-05-15T05:38:51;12.10;99.90
7708;DHT22;3896;48.758;8.888;2023-05-15T05:41:17;12.10;99.90
7708;DHT22;3896;48.758;8.888;2023-05-15T05:43:43;12.20;99.90
7708;DHT22;3896;48.758;8.888;2023-05-15T05:46:09;12.20;99.90
7708;DHT22;3896;48.758;8.888;2023-05-15T05:48:34;12.30;99.90
7708;DHT22;3896;48.758;8.888;2023-05-15T05:51:01;12.30;99.90
7708;DHT22;3896;48.758;8.888;2023-05-15T05:53:26;12.30;99.90
7708;DHT22;3896;48.758;8.888;2023-05-15T05:55:52;12.40;99.90
7708;DHT22;3896;48.758;8.888;2023-05-15T05:58:18;12.40;99.90
7708;DHT22;3896;48.758;8.888;2023-05-15T06:00:44;12.50;99.90
7708;DHT22;3896;48.758;8.888;2023-05-15T06:03:09;12.50;99.90
7708;DHT22;3896;48.758;8.888;2023-05-15T06:05:35;12.60;99.90
7708;DHT22;3896;48.758;8.888;2023-05-15T06:08:01;12.60;99.90
7708;DHT22;3896;48.758;8.888;2023-05-15T06:10:28;12.60;99.90
7708;DHT22;3896;48.758;8.888;2023-05-15T06:12:54;12.70;99.90
7708;DHT22;3896;48.758;8.888;2023-05-15T06:15:19;12.70;99.90
7708;DHT22;3896;48.758;8.888;2023-05-15T06:17:45;12.80;99.90
7708;DHT22;3896;48.758;8.888;2023-05-15T06:20:10;12.80;99.90
7708;DHT22;3896;48.758;8.888;2023-05-15T06:22:36;12.80;99.90
7708;DHT22;3896;48.758;8.888;2023-05-15T06:25:03;13.20;99.90
7708;DHT22;3896;48.758;8.888;2023-05-15T06:27:29;13.10;99.90
7708;DHT22;3896;48.758;8.888;2023-05-15T06:29:55;13.10;99.90
7708;DHT22;3896;48.758;8.888;2023-05-15T06:32:20;13.20;99.90
7708;DHT22;3896;48.758;8.888;2023-05-15T06:34:46;13.20;99.90
7708;DHT22;3896;48.758;8.888;2023-05-15T06:37:12;13.30;99.90
7708;DHT22;3896;48.758;8.888;2023-05-15T06:39:37;13.30;99.90
7708;DHT22;3896;48.758;8.888;2023-05-15T06:42:03;13.30;99.90
7708;DHT22;3896;48.758;8.888;2023-05-15T06:44:29;13.40;99.90
7708;DHT22;3896;48.758;8.888;2023-05-15T06:46:55;13.40;99.90
7708;DHT22;3896;48.758;8.888;2023-05-15T06:49:21;13.50;99.90
7708;DHT22;3896;48.758;8.888;2023-05-15T06:51:47;13.60;99.90
7708;DHT22;3896;48.758;8.888;2023-05-15T06:54:13;13.60;99.90
7708;DHT22;3896;48.758;8.888;2023-05-15T06:56:38;13.70;99.90
7708;DHT22;3896;48.758;8.888;2023-05-15T06:59:04;13.80;99.90
7708;DHT22;3896;48.758;8.888;2023-05-15T07:01:30;13.90;99.90
7708;DHT22;3896;48.758;8.888;2023-05-15T07:03:56;13.90;99.90
7708;DHT22;3896;48.758;8.888;2023-05-15T07:06:21;14.00;99.90
7708;DHT22;3896;48.758;8.888;2023-05-15T07:08:47;14.10;99.90
7708;DHT22;3896;48.758;8.888;2023-05-15T07:11:13;14.20;99.90
7708;DHT22;3896;48.758;8.888;2023-05-15T07:13:39;14.30;99.90
7708;DHT22;3896;48.758;8.888;2023-05-15T07:16:05;14.30;99.90
7708;DHT22;3896;48.758;8.888;2023-05-15T07:18:30;14.40;99.90
7708;DHT22;3896;48.758;8.888;2023-05-15T07:20:56;14.50;99.90
7708;DHT22;3896;48.758;8.888;2023-05-15T07:23:22;14.60;99.90
7708;DHT22;3896;48.758;8.888;2023-05-15T07:25:47;14.60;99.90
7708;DHT22;3896;48.758;8.888;2023-05-15T07:28:13;14.70;99.90
7708;DHT22;3896;48.758;8.888;2023-05-15T07:30:39;14.80;99.90
7708;DHT22;3896;48.758;8.888;2023-05-15T07:33:04;14.90;99.90
7708;DHT22;3896;48.758;8.888;2023-05-15T07:35:30;15.00;99.90
7708;DHT22;3896;48.758;8.888;2023-05-15T07:37:55;15.10;99.90
7708;DHT22;3896;48.758;8.888;2023-05-15T07:40:21;15.20;99.90
7708;DHT22;3896;48.758;8.888;2023-05-15T07:42:46;15.20;99.90
7708;DHT22;3896;48.758;8.888;2023-05-15T07:45:12;15.40;99.90
7708;DHT22;3896;48.758;8.888;2023-05-15T07:47:40;15.50;99.90
7708;DHT22;3896;48.758;8.888;2023-05-15T07:50:06;15.60;99.90
7708;DHT22;3896;48.758;8.888;2023-05-15T07:52:31;15.70;99.90
7708;DHT22;3896;48.758;8.888;2023-05-15T07:54:57;15.80;99.90
7708;DHT22;3896;48.758;8.888;2023-05-15T07:57:23;15.90;99.90
7708;DHT22;3896;48.758;8.888;2023-05-15T07:59:49;16.00;99.90
7708;DHT22;3896;48.758;8.888;2023-05-15T08:02:15;16.10;99.90
7708;DHT22;3896;48.758;8.888;2023-05-15T08:04:41;16.20;99.90
7708;DHT22;3896;48.758;8.888;2023-05-15T08:07:06;16.30;99.90
7708;DHT22;3896;48.758;8.888;2023-05-15T08:09:32;16.40;99.90
7708;DHT22;3896;48.758;8.888;2023-05-15T08:12:14;16.50;99.70
7708;DHT22;3896;48.758;8.888;2023-05-15T08:14:41;16.60;98.90
7708;DHT22;3896;48.758;8.888;2023-05-15T08:17:07;16.70;97.70
7708;DHT22;3896;48.758;8.888;2023-05-15T08:19:33;16.80;97.10
7708;DHT22;3896;48.758;8.888;2023-05-15T08:21:58;17.00;96.80
7708;DHT22;3896;48.758;8.888;2023-05-15T08:24:23;17.10;96.20
7708;DHT22;3896;48.758;8.888;2023-05-15T08:26:49;17.30;95.80
7708;DHT22;3896;48.758;8.888;2023-05-15T08:29:14;17.40;95.30
7708;DHT22;3896;48.758;8.888;2023-05-15T08:31:41;17.50;95.10
7708;DHT22;3896;48.758;8.888;2023-05-15T08:34:06;17.70;94.50
7708;DHT22;3896;48.758;8.888;2023-05-15T08:36:32;17.80;94.00
7708;DHT22;3896;48.758;8.888;2023-05-15T08:38:58;17.90;93.00
7708;DHT22;3896;48.758;8.888;2023-05-15T08:41:43;18.00;92.50
7708;DHT22;3896;48.758;8.888;2023-05-15T08:44:12;18.10;92.00
7708;DHT22;3896;48.758;8.888;2023-05-15T08:46:38;18.30;91.60
7708;DHT22;3896;48.758;8.888;2023-05-15T08:49:10;18.40;90.60
7708;DHT22;3896;48.758;8.888;2023-05-15T08:51:37;18.40;89.60
7708;DHT22;3896;48.758;8.888;2023-05-15T08:54:03;18.50;88.60
7708;DHT22;3896;48.758;8.888;2023-05-15T08:56:29;18.50;87.40
7708;DHT22;3896;48.758;8.888;2023-05-15T08:58:55;18.50;86.60
7708;DHT22;3896;48.758;8.888;2023-05-15T09:01:21;18.50;85.90
7708;DHT22;3896;48.758;8.888;2023-05-15T09:03:47;18.50;85.20
7708;DHT22;3896;48.758;8.888;2023-05-15T09:06:12;18.50;84.60
7708;DHT22;3896;48.758;8.888;2023-05-15T09:08:39;18.50;84.10
7708;DHT22;3896;48.758;8.888;2023-05-15T09:11:06;18.40;83.30
7708;DHT22;3896;48.758;8.888;2023-05-15T09:13:32;18.40;83.30
7708;DHT22;3896;48.758;8.888;2023-05-15T09:15:58;18.40;83.20
7708;DHT22;3896;48.758;8.888;2023-05-15T09:18:24;18.40;83.30
7708;DHT22;3896;48.758;8.888;2023-05-15T09:20:50;18.50;84.10
7708;DHT22;3896;48.758;8.888;2023-05-15T09:23:24;18.60;83.50
7708;DHT22;3896;48.758;8.888;2023-05-15T09:25:50;18.70;83.40
7708;DHT22;3896;48.758;8.888;2023-05-15T09:28:32;18.80;82.90
7708;DHT22;3896;48.758;8.888;2023-05-15T09:31:03;18.90;83.00
7708;DHT22;3896;48.758;8.888;2023-05-15T09:33:31;19.10;82.10
7708;DHT22;3896;48.758;8.888;2023-05-15T09:35:57;19.30;81.40
7708;DHT22;3896;48.758;8.888;2023-05-15T09:38:22;19.40;80.80
7708;DHT22;3896;48.758;8.888;2023-05-15T09:40:48;19.60;79.40
7708;DHT22;3896;48.758;8.888;2023-05-15T09:43:14;19.70;77.70
7708;DHT22;3896;48.758;8.888;2023-05-15T09:45:40;19.80;77.40
7708;DHT22;3896;48.758;8.888;2023-05-15T09:48:07;20.00;74.80
7708;DHT22;3896;48.758;8.888;2023-05-15T09:50:35;20.10;73.80
7708;DHT22;3896;48.758;8.888;2023-05-15T09:53:01;20.20;72.50
7708;DHT22;3896;48.758;8.888;2023-05-15T09:55:27;20.30;72.40
7708;DHT22;3896;48.758;8.888;2023-05-15T09:58:12;20.40;72.10
7708;DHT22;3896;48.758;8.888;2023-05-15T10:00:39;20.50;71.60
7708;DHT22;3896;48.758;8.888;2023-05-15T10:03:06;20.70;70.90
7708;DHT22;3896;48.758;8.888;2023-05-15T10:05:33;20.80;69.40
7708;DHT22;3896;48.758;8.888;2023-05-15T10:07:59;21.00;69.60
7708;DHT22;3896;48.758;8.888;2023-05-15T10:10:26;21.10;68.20
7708;DHT22;3896;48.758;8.888;2023-05-15T10:12:53;21.10;67.30
7708;DHT22;3896;48.758;8.888;2023-05-15T10:15:21;21.30;67.80
7708;DHT22;3896;48.758;8.888;2023-05-15T10:17:48;21.40;65.60
7708;DHT22;3896;48.758;8.888;2023-05-15T10:20:20;21.50;66.70
7708;DHT22;3896;48.758;8.888;2023-05-15T10:22:50;21.60;65.70
7708;DHT22;3896;48.758;8.888;2023-05-15T10:25:26;21.70;62.80
7708;DHT22;3896;48.758;8.888;2023-05-15T10:27:55;21.70;62.60
7708;DHT22;3896;48.758;8.888;2023-05-15T10:30:23;21.80;63.20
7708;DHT22;3896;48.758;8.888;2023-05-15T10:32:50;22.00;64.10
7708;DHT22;3896;48.758;8.888;2023-05-15T10:35:16;22.10;62.10
7708;DHT22;3896;48.758;8.888;2023-05-15T10:37:46;22.20;60.50
7708;DHT22;3896;48.758;8.888;2023-05-15T10:40:12;22.20;59.60
7708;DHT22;3896;48.758;8.888;2023-05-15T10:42:41;22.10;59.10
7708;DHT22;3896;48.758;8.888;2023-05-15T10:45:08;22.20;59.20
7708;DHT22;3896;48.758;8.888;2023-05-15T10:47:34;22.20;58.00
7708;DHT22;3896;48.758;8.888;2023-05-15T10:50:00;22.20;57.10
7708;DHT22;3896;48.758;8.888;2023-05-15T10:52:26;22.20;57.10
7708;DHT22;3896;48.758;8.888;2023-05-15T10:54:52;22.30;57.40
7708;DHT22;3896;48.758;8.888;2023-05-15T10:57:20;22.30;57.80
7708;DHT22;3896;48.758;8.888;2023-05-15T10:59:46;22.40;57.80
7708;DHT22;3896;48.758;8.888;2023-05-15T11:02:19;22.60;57.60
7708;DHT22;3896;48.758;8.888;2023-05-15T11:04:46;22.60;57.60
7708;DHT22;3896;48.758;8.888;2023-05-15T11:07:15;22.80;57.90
7708;DHT22;3896;48.758;8.888;2023-05-15T11:09:42;22.90;57.60
7708;DHT22;3896;48.758;8.888;2023-05-15T11:12:09;22.90;57.30
7708;DHT22;3896;48.758;8.888;2023-05-15T11:17:11;23.00;56.90
7708;DHT22;3896;48.758;8.888;2023-05-15T11:19:53;23.00;56.50
7708;DHT22;3896;48.758;8.888;2023-05-15T11:22:31;23.10;56.00
7708;DHT22;3896;48.758;8.888;2023-05-15T11:25:03;23.10;55.30
7708;DHT22;3896;48.758;8.888;2023-05-15T11:30:10;23.30;55.40
7708;DHT22;3896;48.758;8.888;2023-05-15T11:32:51;23.40;55.40
7708;DHT22;3896;48.758;8.888;2023-05-15T11:35:28;23.60;54.60
7708;DHT22;3896;48.758;8.888;2023-05-15T11:37:56;23.70;54.10
7708;DHT22;3896;48.758;8.888;2023-05-15T11:40:26;23.90;53.60
7708;DHT22;3896;48.758;8.888;2023-05-15T11:45:30;24.10;53.50
7708;DHT22;3896;48.758;8.888;2023-05-15T11:47:58;24.30;52.90
7708;DHT22;3896;48.758;8.888;2023-05-15T11:50:24;24.40;52.30
7708;DHT22;3896;48.758;8.888;2023-05-15T11:52:50;24.50;52.00
7708;DHT22;3896;48.758;8.888;2023-05-15T11:55:18;24.70;51.50
7708;DHT22;3896;48.758;8.888;2023-05-15T11:57:47;24.80;51.40
7708;DHT22;3896;48.758;8.888;2023-05-15T12:00:13;25.00;51.00
7708;DHT22;3896;48.758;8.888;2023-05-15T12:02:39;25.10;51.00
7708;DHT22;3896;48.758;8.888;2023-05-15T12:05:08;25.20;50.70
7708;DHT22;3896;48.758;8.888;2023-05-15T12:07:38;25.40;49.80
7708;DHT22;3896;48.758;8.888;2023-05-15T12:10:04;25.60;49.20
7708;DHT22;3896;48.758;8.888;2023-05-15T12:12:30;25.70;48.60
7708;DHT22;3896;48.758;8.888;2023-05-15T12:14:59;25.80;48.30
7708;DHT22;3896;48.758;8.888;2023-05-15T12:17:24;26.00;48.60
7708;DHT22;3896;48.758;8.888;2023-05-15T12:19:52;26.20;48.60
7708;DHT22;3896;48.758;8.888;2023-05-15T12:22:17;26.40;48.00
7708;DHT22;3896;48.758;8.888;2023-05-15T12:24:43;26.50;47.50
7708;DHT22;3896;48.758;8.888;2023-05-15T12:27:10;26.70;46.10
7708;DHT22;3896;48.758;8.888;2023-05-15T12:29:37;26.80;45.70
7708;DHT22;3896;48.758;8.888;2023-05-15T12:32:03;26.80;44.90
7708;DHT22;3896;48.758;8.888;2023-05-15T12:34:29;26.80;44.00
7708;DHT22;3896;48.758;8.888;2023-05-15T12:36:55;26.90;44.00
7708;DHT22;3896;48.758;8.888;2023-05-15T12:39:20;26.90;44.10
7708;DHT22;3896;48.758;8.888;2023-05-15T12:41:46;27.00;44.20
7708;DHT22;3896;48.758;8.888;2023-05-15T12:44:17;27.10;43.90
7708;DHT22;3896;48.758;8.888;2023-05-15T12:46:42;27.30;44.00
7708;DHT22;3896;48.758;8.888;2023-05-15T12:49:08;27.50;44.30
7708;DHT22;3896;48.758;8.888;2023-05-15T12:51:41;27.60;44.20
7708;DHT22;3896;48.758;8.888;2023-05-15T12:54:15;27.40;44.40
7708;DHT22;3896;48.758;8.888;2023-05-15T12:56:41;27.30;44.90
7708;DHT22;3896;48.758;8.888;2023-05-15T12:59:07;27.30;45.20
7708;DHT22;3896;48.758;8.888;2023-05-15T13:01:32;27.20;45.80
7708;DHT22;3896;48.758;8.888;2023-05-15T13:03:59;27.20;46.20
7708;DHT22;3896;48.758;8.888;2023-05-15T13:06:25;27.30;46.40
7708;DHT22;3896;48.758;8.888;2023-05-15T13:08:53;27.40;46.30
7708;DHT22;3896;48.758;8.888;2023-05-15T13:11:18;27.60;45.90
7708;DHT22;3896;48.758;8.888;2023-05-15T13:13:48;27.70;45.30
7708;DHT22;3896;48.758;8.888;2023-05-15T13:16:27;27.80;45.40
7708;DHT22;3896;48.758;8.888;2023-05-15T13:18:55;27.90;45.90
7708;DHT22;3896;48.758;8.888;2023-05-15T13:21:22;28.00;45.70
7708;DHT22;3896;48.758;8.888;2023-05-15T13:23:49;28.10;45.80
7708;DHT22;3896;48.758;8.888;2023-05-15T13:26:15;28.20;45.70
7708;DHT22;3896;48.758;8.888;2023-05-15T13:28:41;28.30;45.00
7708;DHT22;3896;48.758;8.888;2023-05-15T13:31:06;28.30;44.70
7708;DHT22;3896;48.758;8.888;2023-05-15T13:33:32;28.40;43.70
7708;DHT22;3896;48.758;8.888;2023-05-15T13:36:00;28.50;43.50
7708;DHT22;3896;48.758;8.888;2023-05-15T13:38:25;28.60;43.50
7708;DHT22;3896;48.758;8.888;2023-05-15T13:40:51;28.60;43.20
7708;DHT22;3896;48.758;8.888;2023-05-15T13:43:16;28.70;43.00
7708;DHT22;3896;48.758;8.888;2023-05-15T13:45:42;28.70;42.80
7708;DHT22;3896;48.758;8.888;2023-05-15T13:48:08;28.70;42.80
7708;DHT22;3896;48.758;8.888;2023-05-15T13:50:33;28.80;42.90
7708;DHT22;3896;48.758;8.888;2023-05-15T13:52:59;28.90;42.80
7708;DHT22;3896;48.758;8.888;2023-05-15T13:55:24;29.10;42.90
7708;DHT22;3896;48.758;8.888;2023-05-15T13:57:50;29.20;42.80
7708;DHT22;3896;48.758;8.888;2023-05-15T14:00:17;29.20;42.10
7708;DHT22;3896;48.758;8.888;2023-05-15T14:02:44;29.20;41.30
7708;DHT22;3896;48.758;8.888;2023-05-15T14:05:11;29.30;41.80
7708;DHT22;3896;48.758;8.888;2023-05-15T14:07:36;29.30;41.80
7708;DHT22;3896;48.758;8.888;2023-05-15T14:10:03;29.40;41.00
7708;DHT22;3896;48.758;8.888;2023-05-15T14:12:28;29.40;40.40
7708;DHT22;3896;48.758;8.888;2023-05-15T14:14:54;29.30;40.10
7708;DHT22;3896;48.758;8.888;2023-05-15T14:17:21;29.20;40.60
7708;DHT22;3896;48.758;8.888;2023-05-15T14:19:47;29.20;40.20
7708;DHT22;3896;48.758;8.888;2023-05-15T14:22:15;29.20;40.20
7708;DHT22;3896;48.758;8.888;2023-05-15T14:24:41;29.20;39.90
7708;DHT22;3896;48.758;8.888;2023-05-15T14:27:07;29.20;39.60
7708;DHT22;3896;48.758;8.888;2023-05-15T14:29:33;29.30;39.60
7708;DHT22;3896;48.758;8.888;2023-05-15T14:31:58;29.30;38.90
7708;DHT22;3896;48.758;8.888;2023-05-15T14:34:24;29.30;39.10
7708;DHT22;3896;48.758;8.888;2023-05-15T14:36:50;29.30;39.00
7708;DHT22;3896;48.758;8.888;2023-05-15T14:39:16;29.20;39.30
7708;DHT22;3896;48.758;8.888;2023-05-15T14:41:42;29.20;39.30
7708;DHT22;3896;48.758;8.888;2023-05-15T14:44:08;29.10;39.30
7708;DHT22;3896;48.758;8.888;2023-05-15T14:46:34;29.10;39.40
7708;DHT22;3896;48.758;8.888;2023-05-15T14:49:03;29.00;39.10
7708;DHT22;3896;48.758;8.888;2023-05-15T14:51:29;29.10;39.00
7708;DHT22;3896;48.758;8.888;2023-05-15T14:53:55;29.10;39.00
7708;DHT22;3896;48.758;8.888;2023-05-15T14:56:20;29.10;38.80
7708;DHT22;3896;48.758;8.888;2023-05-15T14:58:46;29.10;38.30
7708;DHT22;3896;48.758;8.888;2023-05-15T15:01:13;29.10;38.40
7708;DHT22;3896;48.758;8.888;2023-05-15T15:03:39;29.20;38.50
7708;DHT22;3896;48.758;8.888;2023-05-15T15:06:07;29.20;38.20
7708;DHT22;3896;48.758;8.888;2023-05-15T15:08:32;29.20;38.20
7708;DHT22;3896;48.758;8.888;2023-05-15T15:10:58;29.20;38.20
7708;DHT22;3896;48.758;8.888;2023-05-15T15:13:23;29.20;38.10
7708;DHT22;3896;48.758;8.888;2023-05-15T15:15:50;29.10;38.30
7708;DHT22;3896;48.758;8.888;2023-05-15T15:18:16;29.20;38.50
7708;DHT22;3896;48.758;8.888;2023-05-15T15:20:42;29.10;38.90
7708;DHT22;3896;48.758;8.888;2023-05-15T15:23:07;29.10;39.10
7708;DHT22;3896;48.758;8.888;2023-05-15T15:25:34;29.00;39.30
7708;DHT22;3896;48.758;8.888;2023-05-15T15:28:00;28.90;39.50
7708;DHT22;3896;48.758;8.888;2023-05-15T15:30:26;28.70;39.50
7708;DHT22;3896;48.758;8.888;2023-05-15T15:32:51;28.50;39.50
7708;DHT22;3896;48.758;8.888;2023-05-15T15:35:19;28.30;39.80
7708;DHT22;3896;48.758;8.888;2023-05-15T15:37:44;28.10;40.20
7708;DHT22;3896;48.758;8.888;2023-05-15T15:40:10;28.00;40.60
7708;DHT22;3896;48.758;8.888;2023-05-15T15:42:36;27.80;41.00
7708;DHT22;3896;48.758;8.888;2023-05-15T15:45:02;27.60;41.70
7708;DHT22;3896;48.758;8.888;2023-05-15T15:47:29;27.40;42.10
7708;DHT22;3896;48.758;8.888;2023-05-15T15:49:59;27.20;42.20
7708;DHT22;3896;48.758;8.888;2023-05-15T15:52:26;27.00;42.10
7708;DHT22;3896;48.758;8.888;2023-05-15T15:54:52;26.80;42.50
7708;DHT22;3896;48.758;8.888;2023-05-15T15:57:20;26.70;42.70
7708;DHT22;3896;48.758;8.888;2023-05-15T15:59:46;26.50;42.80
7708;DHT22;3896;48.758;8.888;2023-05-15T16:02:12;26.40;43.00
7708;DHT22;3896;48.758;8.888;2023-05-15T16:04:38;26.30;43.20
7708;DHT22;3896;48.758;8.888;2023-05-15T16:07:04;26.10;43.60
7708;DHT22;3896;48.758;8.888;2023-05-15T16:09:30;26.00;44.30
7708;DHT22;3896;48.758;8.888;2023-05-15T16:11:56;25.80;45.00
7708;DHT22;3896;48.758;8.888;2023-05-15T16:14:22;25.70;45.40